Time;durP1;ratioP1;P1;durP2;ratioP2;P2;SDS_P1;SDS_P2;PMS_P1;PMS_P2;Temp;Humidity;BMP_temperature;BMP_pressure;BME280_temperature;BME280_humidity;BME280_pressure;Samples;Min_cycle;Max_cycle;Signal;HPM_P1;HPM_P2
2022/11/22 00:01:02;;;;;;;13.77;10.10;;;;;;;;;;4961075;28;20193;-53
2022/11/22 00:03:28;;;;;;;14.13;9.70;;;;;;;;;;4970868;28;20533;-53
2022/11/22 00:05:53;;;;;;;15.63;11.10;;;3.90;1.00;;;;;;4965234;28;21018;-52
2022/11/22 00:08:19;;;;;;;13.77;11.27;;;3.70;1.00;;;;;;4972396;28;20423;-55
2022/11/22 00:10:48;;;;;;;14.03;9.87;;;3.80;1.00;;;;;;4968213;28;20284;-54
2022/11/22 00:13:14;;;;;;;14.73;10.30;;;3.70;1.00;;;;;;4965724;28;20190;-53
2022/11/22 00:15:41;;;;;;;16.50;10.50;;;3.80;1.00;;;;;;4967072;28;20481;-55
2022/11/22 00:18:07;;;;;;;14.63;10.47;;;3.80;1.00;;;;;;4966722;28;20478;-55
2022/11/22 00:20:33;;;;;;;16.83;11.00;;;3.80;1.00;;;;;;4967949;28;20447;-52
2022/11/22 00:22:58;;;;;;;16.00;10.87;;;3.70;1.00;;;;;;4969360;28;20664;-53
2022/11/22 00:25:24;;;;;;;16.90;11.20;;;3.70;1.00;;;;;;4971284;28;20480;-54
2022/11/22 00:27:50;;;;;;;17.13;11.23;;;;;;;;;;4968081;28;20230;-53
2022/11/22 00:30:16;;;;;;;14.00;10.60;;;3.70;1.00;;;;;;4967764;28;20272;-55
2022/11/22 00:32:42;;;;;;;16.40;11.50;;;;;;;;;;4967298;28;20455;-54
2022/11/22 00:35:09;;;;;;;15.43;11.80;;;3.60;1.00;;;;;;4972268;28;20190;-53
2022/11/22 00:37:35;;;;;;;17.33;12.57;;;3.60;1.00;;;;;;4972333;28;20552;-53
2022/11/22 00:40:01;;;;;;;19.10;13.37;;;3.60;1.00;;;;;;4969678;28;20579;-53
2022/11/22 00:42:26;;;;;;;16.53;12.30;;;3.60;1.00;;;;;;4960450;28;20259;-54
2022/11/22 00:44:52;;;;;;;17.00;11.83;;;3.50;1.00;;;;;;4969193;28;20506;-53
2022/11/22 00:47:18;;;;;;;19.13;12.83;;;3.40;1.00;;;;;;4969859;28;20189;-54
2022/11/22 00:49:43;;;;;;;19.90;12.80;;;3.30;1.00;;;;;;4967639;28;20563;-53
2022/11/22 00:52:10;;;;;;;17.63;11.67;;;3.40;1.00;;;;;;4970282;28;20197;-54
2022/11/22 00:54:36;;;;;;;19.40;12.57;;;3.40;1.00;;;;;;4971030;28;20453;-54
2022/11/22 00:57:02;;;;;;;20.70;12.40;;;3.40;1.00;;;;;;4965926;28;20466;-54
2022/11/22 00:59:27;;;;;;;16.33;10.57;;;3.40;1.00;;;;;;4970433;28;20685;-53
2022/11/22 01:01:53;;;;;;;17.07;10.53;;;3.40;1.00;;;;;;4965702;28;20202;-53
2022/11/22 01:04:18;;;;;;;15.77;11.23;;;3.40;1.00;;;;;;4967179;28;20973;-53
2022/11/22 01:06:44;;;;;;;18.97;11.93;;;3.40;1.00;;;;;;4969709;28;20220;-54
2022/11/22 01:09:15;;;;;;;13.63;10.90;;;3.40;1.00;;;;;;4961710;28;20643;-54
2022/11/22 01:11:43;;;;;;;16.67;10.80;;;3.40;1.00;;;;;;4967485;28;20526;-56
2022/11/22 01:14:08;;;;;;;15.90;11.13;;;3.40;1.00;;;;;;4967177;28;20445;-53
2022/11/22 01:16:34;;;;;;;17.20;10.87;;;;;;;;;;4963835;28;20492;-53
2022/11/22 01:19:00;;;;;;;13.13;10.40;;;;;;;;;;4961050;28;20209;-53
2022/11/22 01:21:26;;;;;;;14.13;9.93;;;3.50;1.00;;;;;;4962213;28;20449;-54
2022/11/22 01:23:51;;;;;;;13.73;10.73;;;3.50;1.00;;;;;;4969636;28;20455;-54
2022/11/22 01:26:17;;;;;;;13.87;10.13;;;;;;;;;;4966548;28;20563;-54
2022/11/22 01:28:43;;;;;;;13.47;9.83;;;3.50;1.00;;;;;;4963832;28;20591;-53
2022/11/22 01:31:09;;;;;;;11.80;9.30;;;;;;;;;;4959439;28;20488;-53
2022/11/22 01:33:35;;;;;;;10.90;8.70;;;3.50;1.00;;;;;;4964170;28;20204;-54
2022/11/22 01:36:00;;;;;;;11.80;9.80;;;3.50;1.00;;;;;;4966861;28;20485;-55
2022/11/22 01:38:26;;;;;;;14.90;10.80;;;3.50;1.00;;;;;;4964997;28;20839;-53
2022/11/22 01:40:52;;;;;;;14.17;9.87;;;3.50;1.00;;;;;;4969427;28;20675;-54
2022/11/22 01:43:20;;;;;;;14.53;11.90;;;3.50;1.00;;;;;;4969006;28;20192;-54
2022/11/22 01:45:56;;;;;;;11.90;9.00;;;3.40;1.00;;;;;;4967727;28;20435;-54
2022/11/22 01:48:29;;;;;;;15.77;11.03;;;3.50;1.00;;;;;;4966680;28;20568;-53
2022/11/22 01:51:03;;;;;;;14.10;9.93;;;3.50;1.00;;;;;;4964334;28;20879;-54
2022/11/22 01:53:35;;;;;;;13.97;10.57;;;3.40;1.00;;;;;;4959563;28;20863;-54
2022/11/22 01:56:03;;;;;;;14.00;10.90;;;3.40;1.00;;;;;;4963063;28;21390;-54
2022/11/22 01:58:32;;;;;;;15.73;10.80;;;3.30;1.00;;;;;;4964640;28;20796;-53
2022/11/22 02:00:58;;;;;;;17.83;11.93;;;3.30;1.00;;;;;;4965209;28;20457;-53
2022/11/22 02:03:25;;;;;;;13.47;11.30;;;3.30;1.00;;;;;;4962088;28;20511;-53
2022/11/22 02:05:52;;;;;;;14.87;11.20;;;3.20;1.00;;;;;;4964369;28;20190;-55
2022/11/22 02:08:50;;;;;;;15.33;11.40;;;3.30;1.00;;;;;;4964567;28;20466;-53
2022/11/22 02:11:17;;;;;;;13.63;11.17;;;3.30;1.00;;;;;;4963372;28;21240;-53
2022/11/22 02:13:44;;;;;;;13.77;10.90;;;3.30;1.00;;;;;;4967054;28;20473;-53
2022/11/22 02:16:11;;;;;;;14.03;11.23;;;3.30;1.00;;;;;;4967529;28;20481;-54
2022/11/22 02:18:37;;;;;;;15.00;11.47;;;3.30;1.00;;;;;;4961991;28;20457;-52
2022/11/22 02:21:04;;;;;;;14.83;11.10;;;3.20;1.00;;;;;;4968223;28;20785;-52
2022/11/22 02:23:51;;;;;;;14.77;11.40;;;3.20;1.00;;;;;;4966272;28;20441;-54
2022/11/22 02:26:17;;;;;;;15.03;10.80;;;3.10;1.00;;;;;;4967452;28;20544;-52
2022/11/22 02:28:44;;;;;;;18.17;11.30;;;3.00;1.00;;;;;;4966510;28;21001;-54
2022/11/22 02:31:43;;;;;;;14.30;10.67;;;2.90;1.00;;;;;;4968319;28;20492;-53
2022/11/22 02:34:12;;;;;;;15.10;11.97;;;3.00;1.00;;;;;;4961420;28;20669;-53
2022/11/22 02:36:48;;;;;;;13.13;11.23;;;2.90;1.00;;;;;;4966051;28;20874;-53
2022/11/22 02:39:18;;;;;;;14.47;11.30;;;2.90;1.00;;;;;;4964246;28;21197;-54
2022/11/22 02:41:44;;;;;;;14.20;10.93;;;2.90;1.00;;;;;;4965472;28;20985;-52
2022/11/22 02:44:12;;;;;;;16.37;12.50;;;2.90;1.00;;;;;;4964684;28;20456;-54
2022/11/22 02:46:49;;;;;;;14.83;11.53;;;2.90;1.00;;;;;;4968837;28;20952;-52
2022/11/22 02:49:17;;;;;;;15.23;12.20;;;2.90;1.00;;;;;;4964665;28;20451;-52
2022/11/22 02:51:43;;;;;;;20.00;12.00;;;2.90;1.00;;;;;;4963028;28;20471;-54
2022/11/22 02:54:08;;;;;;;15.33;11.87;;;2.90;1.00;;;;;;4964594;28;22053;-55
2022/11/22 02:56:34;;;;;;;14.50;11.17;;;2.90;1.00;;;;;;4968875;28;20216;-54
2022/11/22 02:58:59;;;;;;;16.40;12.20;;;2.90;1.00;;;;;;4962436;28;20208;-54
2022/11/22 03:01:25;;;;;;;18.00;12.50;;;2.80;1.00;;;;;;4965647;28;20193;-53
2022/11/22 03:03:50;;;;;;;16.70;12.47;;;2.90;1.00;;;;;;4967766;28;20190;-52
2022/11/22 03:06:16;;;;;;;17.17;11.87;;;2.90;1.00;;;;;;4961104;28;20194;-52
2022/11/22 03:08:43;;;;;;;16.73;12.57;;;2.90;1.00;;;;;;4965951;28;20274;-53
2022/11/22 03:11:08;;;;;;;17.23;11.07;;;2.90;1.00;;;;;;4966758;28;20184;-53
2022/11/22 03:13:34;;;;;;;15.70;11.80;;;2.90;1.00;;;;;;4964247;28;20456;-53
2022/11/22 03:16:00;;;;;;;15.83;12.53;;;2.90;1.00;;;;;;4965250;28;20517;-54
2022/11/22 03:18:25;;;;;;;18.83;12.10;;;2.90;1.00;;;;;;4955834;28;20223;-54
2022/11/22 03:20:51;;;;;;;15.10;12.27;;;2.90;1.00;;;;;;4962448;28;20669;-54
2022/11/22 03:23:17;;;;;;;14.67;12.80;;;2.90;1.00;;;;;;4966151;28;20216;-53
2022/11/22 03:25:43;;;;;;;20.03;12.73;;;;;;;;;;4967465;28;20208;-53
2022/11/22 03:28:08;;;;;;;17.00;12.87;;;3.00;1.00;;;;;;4966530;28;20289;-53
2022/11/22 03:30:38;;;;;;;15.50;11.80;;;3.00;1.00;;;;;;4966051;28;20453;-52
2022/11/22 03:33:04;;;;;;;18.20;12.77;;;3.10;1.00;;;;;;4963677;28;20194;-54
2022/11/22 03:35:29;;;;;;;15.00;11.80;;;3.10;1.00;;;;;;4970405;28;20582;-54
2022/11/22 03:37:55;;;;;;;19.57;13.77;;;;;;;;;;4966392;28;20212;-52
2022/11/22 03:40:21;;;;;;;17.40;13.00;;;3.10;1.00;;;;;;4965274;28;20271;-52
2022/11/22 03:42:47;;;;;;;17.37;12.17;;;3.20;1.00;;;;;;4970200;28;20918;-52
2022/11/22 03:45:13;;;;;;;18.43;12.00;;;3.20;1.00;;;;;;4969011;28;20195;-53
2022/11/22 03:47:38;;;;;;;18.23;12.87;;;3.20;1.00;;;;;;4966603;28;20194;-53
2022/11/22 03:50:04;;;;;;;18.00;12.03;;;3.30;1.00;;;;;;4968580;28;20439;-52
2022/11/22 03:52:30;;;;;;;15.83;13.20;;;3.30;1.00;;;;;;4971208;28;20673;-52
2022/11/22 03:54:56;;;;;;;18.67;13.17;;;;;;;;;;4965848;28;20452;-52
2022/11/22 03:57:21;;;;;;;16.77;12.27;;;3.30;1.00;;;;;;4971177;28;21156;-53
2022/11/22 03:59:47;;;;;;;14.93;11.43;;;3.30;1.00;;;;;;4968319;28;20469;-52
2022/11/22 04:02:13;;;;;;;13.27;10.83;;;3.40;1.00;;;;;;4964459;28;20339;-53
2022/11/22 04:04:38;;;;;;;16.70;11.80;;;3.40;1.00;;;;;;4970220;28;20547;-52
2022/11/22 04:07:04;;;;;;;15.20;11.30;;;;;;;;;;4970409;28;20231;-52
2022/11/22 04:09:30;;;;;;;16.20;11.33;;;3.40;1.00;;;;;;4968980;28;20204;-53
2022/11/22 04:11:55;;;;;;;14.10;10.00;;;3.50;1.00;;;;;;4969283;28;20463;-52
2022/11/22 04:17:05;;;;;;;17.30;11.77;;;3.70;1.00;;;;;;4967545;28;20331;-53
2022/11/22 04:19:30;;;;;;;11.63;9.70;;;3.70;1.00;;;;;;4965104;28;20447;-53
2022/11/22 04:21:56;;;;;;;12.77;9.30;;;3.80;1.00;;;;;;4966202;28;20600;-52
2022/11/22 04:27:05;;;;;;;13.80;10.47;;;3.90;1.00;;;;;;4971064;28;20591;-53
2022/11/22 04:29:31;;;;;;;18.97;10.13;;;4.10;1.00;;;;;;4970015;28;20493;-54
2022/11/22 04:34:41;;;;;;;12.67;10.87;;;4.10;1.00;;;;;;4966035;28;20208;-52
2022/11/22 04:37:06;;;;;;;14.50;9.87;;;4.10;1.00;;;;;;4961655;28;21044;-54
2022/11/22 04:39:32;;;;;;;14.97;8.67;;;4.10;1.00;;;;;;4963382;28;20190;-54
2022/11/22 04:44:44;;;;;;;12.07;9.10;;;4.20;1.00;;;;;;4946626;28;20427;-53
2022/11/22 04:47:57;;;;;;;13.23;8.50;;;4.20;1.00;;;;;;4968898;28;20595;-54
2022/11/22 04:49:58;;;;;;;14.37;9.63;;;4.20;1.00;;;;;;4966946;28;20934;-53
2022/11/22 04:55:08;;;;;;;11.90;8.83;;;4.20;1.00;;;;;;4965569;28;20237;-53
2022/11/22 04:57:34;;;;;;;10.30;9.10;;;;;;;;;;4963557;28;20479;-53
2022/11/22 05:00:00;;;;;;;13.37;9.03;;;;;;;;;;4964502;28;20273;-55
2022/11/22 05:02:26;;;;;;;11.30;8.70;;;;;;;;;;4967997;28;20954;-54
2022/11/22 05:04:51;;;;;;;13.00;10.47;;;4.20;1.00;;;;;;4968994;28;20492;-52
2022/11/22 05:07:17;;;;;;;11.80;9.40;;;4.20;1.00;;;;;;4971216;28;20460;-51
2022/11/22 05:09:43;;;;;;;14.07;10.60;;;4.30;1.00;;;;;;4966416;28;20271;-53
2022/11/22 05:12:08;;;;;;;11.53;9.63;;;4.40;1.00;;;;;;4969682;28;20241;-52
2022/11/22 05:14:34;;;;;;;14.03;10.50;;;;;;;;;;4967214;28;20193;-54
2022/11/22 05:17:00;;;;;;;13.10;9.20;;;4.50;1.00;;;;;;4968304;28;20329;-51
2022/11/22 05:19:25;;;;;;;10.93;8.53;;;4.50;1.00;;;;;;4969502;28;20864;-52
2022/11/22 05:21:51;;;;;;;12.20;8.77;;;4.60;1.00;;;;;;4969616;28;20660;-53
2022/11/22 05:24:17;;;;;;;14.53;9.30;;;;;;;;;;4969225;28;20203;-52
2022/11/22 05:26:43;;;;;;;12.03;8.87;;;;;;;;;;4984962;28;20209;-53
2022/11/22 05:29:09;;;;;;;11.90;9.40;;;4.70;1.00;;;;;;4966223;28;20960;-55
2022/11/22 05:31:37;;;;;;;13.40;8.73;;;4.70;1.00;;;;;;4970171;28;20454;-53
2022/11/22 05:34:04;;;;;;;11.93;9.60;;;;;;;;;;4968017;28;20615;-53
2022/11/22 05:36:33;;;;;;;12.93;8.93;;;4.70;1.00;;;;;;4969519;28;20465;-55
2022/11/22 05:38:59;;;;;;;12.30;10.20;;;4.70;1.00;;;;;;4969460;28;20485;-54
2022/11/22 05:41:25;;;;;;;11.20;9.80;;;4.70;1.00;;;;;;4969603;28;20487;-53
2022/11/22 05:43:55;;;;;;;13.83;9.03;;;4.70;1.00;;;;;;4967588;28;21178;-54
2022/11/22 05:46:26;;;;;;;12.10;9.20;;;4.60;1.00;;;;;;4966252;28;20440;-55
2022/11/22 05:48:53;;;;;;;13.60;10.37;;;4.70;1.00;;;;;;4969269;28;20469;-54
2022/11/22 05:51:21;;;;;;;13.90;10.57;;;4.70;1.00;;;;;;4958930;28;20950;-55
2022/11/22 05:53:47;;;;;;;15.50;10.13;;;4.80;1.00;;;;;;4959426;28;20456;-55
2022/11/22 05:56:21;;;;;;;12.40;9.80;;;4.70;1.00;;;;;;4970922;28;20482;-53
2022/11/22 05:58:47;;;;;;;12.90;10.03;;;4.60;1.00;;;;;;4968101;28;20194;-54
2022/11/22 06:01:18;;;;;;;14.13;10.43;;;4.60;1.00;;;;;;4968951;28;20444;-55
2022/11/22 06:03:44;;;;;;;12.20;9.83;;;4.70;1.00;;;;;;4968547;28;20462;-54
2022/11/22 06:06:11;;;;;;;14.33;11.13;;;4.60;1.00;;;;;;4968949;28;20513;-54
2022/11/22 06:08:40;;;;;;;14.27;11.17;;;4.50;1.00;;;;;;4969542;28;20457;-55
2022/11/22 06:11:08;;;;;;;15.20;10.97;;;4.60;1.00;;;;;;4964830;28;20511;-55
2022/11/22 06:13:39;;;;;;;12.07;9.43;;;4.70;1.00;;;;;;4966178;28;20476;-56
2022/11/22 06:16:06;;;;;;;13.50;10.00;;;4.70;1.00;;;;;;4966651;28;21211;-56
2022/11/22 06:18:32;;;;;;;13.43;10.10;;;4.70;1.00;;;;;;4968272;28;20449;-56
2022/11/22 06:21:00;;;;;;;13.70;10.53;;;4.70;1.00;;;;;;4969257;28;20459;-55
2022/11/22 06:23:26;;;;;;;12.97;9.80;;;4.80;1.00;;;;;;4969072;28;20955;-56
2022/11/22 06:25:59;;;;;;;14.53;10.70;;;4.80;1.00;;;;;;4966091;28;20962;-55
2022/11/22 06:28:27;;;;;;;13.87;10.20;;;4.70;1.00;;;;;;4967377;28;20472;-55
2022/11/22 06:30:53;;;;;;;13.23;11.00;;;;;;;;;;4966716;28;20985;-55
2022/11/22 06:33:19;;;;;;;16.30;11.57;;;4.80;1.00;;;;;;4969742;28;20510;-54
2022/11/22 06:35:45;;;;;;;13.50;10.83;;;4.80;1.00;;;;;;4966778;28;20476;-54
2022/11/22 06:38:10;;;;;;;14.77;11.03;;;4.80;1.00;;;;;;4968102;28;20434;-55
2022/11/22 06:40:36;;;;;;;15.33;11.50;;;4.80;1.00;;;;;;4970501;28;20193;-54
2022/11/22 06:43:01;;;;;;;12.67;10.47;;;4.80;1.00;;;;;;4969487;28;20217;-53
2022/11/22 06:45:27;;;;;;;14.47;11.13;;;4.80;1.00;;;;;;4969930;28;20206;-55
2022/11/22 06:47:53;;;;;;;18.40;11.63;;;;;;;;;;4969663;28;20189;-57
2022/11/22 06:50:19;;;;;;;12.43;9.80;;;4.90;1.00;;;;;;4968042;28;20190;-53
2022/11/22 06:52:50;;;;;;;17.60;11.70;;;4.90;1.00;;;;;;4969620;28;20498;-56
2022/11/22 06:55:16;;;;;;;15.03;10.80;;;4.80;1.00;;;;;;4969813;28;20235;-54
2022/11/22 06:57:42;;;;;;;13.80;10.27;;;4.80;1.00;;;;;;4968977;28;20461;-53
2022/11/22 07:00:08;;;;;;;12.10;9.67;;;4.80;1.00;;;;;;4969156;28;20459;-54
2022/11/22 07:02:34;;;;;;;14.97;11.73;;;4.90;1.00;;;;;;4968680;28;20208;-55
2022/11/22 07:04:59;;;;;;;14.33;10.30;;;5.00;1.00;;;;;;4968720;28;20435;-55
2022/11/22 07:07:25;;;;;;;15.00;10.70;;;5.00;1.00;;;;;;4970413;28;20247;-54
2022/11/22 07:09:50;;;;;;;13.80;10.07;;;5.00;1.00;;;;;;4972826;28;20192;-57
2022/11/22 07:12:16;;;;;;;15.10;11.57;;;5.00;1.00;;;;;;4972493;28;20189;-57
2022/11/22 07:14:42;;;;;;;15.10;9.80;;;;;;;;;;4971473;28;20623;-54
2022/11/22 07:17:07;;;;;;;13.60;10.27;;;5.10;1.00;;;;;;4972295;28;20215;-54
2022/11/22 07:19:33;;;;;;;14.33;10.50;;;5.10;1.00;;;;;;4972153;28;21091;-54
2022/11/22 07:21:59;;;;;;;12.40;10.27;;;5.10;1.00;;;;;;4972015;28;20755;-54
2022/11/22 07:24:25;;;;;;;13.50;9.60;;;5.10;1.00;;;;;;4972509;28;20184;-55
2022/11/22 07:26:51;;;;;;;12.87;10.53;;;5.20;1.00;;;;;;4973051;28;20197;-54
2022/11/22 07:29:16;;;;;;;14.90;10.20;;;5.20;1.00;;;;;;4971588;28;20462;-55
2022/11/22 07:31:44;;;;;;;17.43;11.17;;;5.10;1.00;;;;;;4972909;28;20727;-54
2022/11/22 07:34:10;;;;;;;15.53;10.73;;;5.20;1.00;;;;;;4971652;28;20192;-56
2022/11/22 07:36:36;;;;;;;14.83;11.03;;;5.20;1.00;;;;;;4972921;28;20468;-56
2022/11/22 07:39:02;;;;;;;12.90;9.87;;;5.20;1.00;;;;;;4973063;28;20218;-55
2022/11/22 07:41:28;;;;;;;17.27;12.23;;;5.20;1.00;;;;;;4973092;28;20192;-53
2022/11/22 07:43:54;;;;;;;13.63;10.40;;;;;;;;;;4972569;28;20553;-55
2022/11/22 07:46:29;;;;;;;14.27;10.40;;;5.30;1.00;;;;;;4971400;28;20198;-54
2022/11/22 07:48:59;;;;;;;14.20;10.67;;;5.30;1.00;;;;;;4972269;28;20459;-56
2022/11/22 07:51:25;;;;;;;13.47;10.87;;;;;;;;;;4972795;28;20461;-55
2022/11/22 07:53:51;;;;;;;12.00;9.77;;;5.30;1.00;;;;;;4972612;28;20858;-54
2022/11/22 07:56:16;;;;;;;14.23;10.60;;;5.30;1.00;;;;;;4970939;28;20477;-56
2022/11/22 07:58:42;;;;;;;17.93;12.43;;;5.40;1.00;;;;;;4970757;28;20621;-53
2022/11/22 08:01:14;;;;;;;16.60;9.77;;;5.50;1.00;;;;;;4970902;28;20804;-55
2022/11/22 08:03:40;;;;;;;12.77;10.30;;;5.50;1.00;;;;;;4970822;28;20185;-53
2022/11/22 08:06:07;;;;;;;14.47;10.80;;;5.40;1.00;;;;;;4972366;28;20782;-55
2022/11/22 08:08:34;;;;;;;16.07;12.30;;;5.50;1.00;;;;;;4972664;28;20793;-53
2022/11/22 08:11:00;;;;;;;17.03;11.87;;;5.50;1.00;;;;;;4972331;28;20544;-54
2022/11/22 08:13:25;;;;;;;16.00;12.00;;;5.50;1.00;;;;;;4969842;28;20469;-54
2022/11/22 08:15:51;;;;;;;14.77;10.27;;;5.50;1.00;;;;;;4971564;28;20461;-54
2022/11/22 08:18:17;;;;;;;15.30;11.70;;;5.70;1.00;;;;;;4972234;28;20189;-55
2022/11/22 08:20:43;;;;;;;13.37;10.43;;;5.80;1.00;;;;;;4972318;28;20452;-54
2022/11/22 08:23:08;;;;;;;14.87;10.80;;;5.80;1.00;;;;;;4972631;28;20191;-54
2022/11/22 08:25:34;;;;;;;15.17;10.63;;;5.90;1.00;;;;;;4971228;28;20639;-53
2022/11/22 08:27:59;;;;;;;13.27;10.70;;;6.00;1.00;;;;;;4970838;28;20205;-54
2022/11/22 08:30:25;;;;;;;18.13;11.63;;;6.00;1.00;;;;;;4971575;28;20253;-56
2022/11/22 08:32:54;;;;;;;14.60;12.00;;;6.10;1.00;;;;;;4971943;28;20233;-55
2022/11/22 08:35:20;;;;;;;12.90;10.60;;;6.10;1.00;;;;;;4970762;28;20573;-54
2022/11/22 08:37:46;;;;;;;13.80;10.63;;;;;;;;;;4971298;28;20554;-56
2022/11/22 08:40:12;;;;;;;12.47;10.07;;;;;;;;;;4969142;28;20468;-55
2022/11/22 08:42:38;;;;;;;14.07;10.23;;;6.30;1.00;;;;;;4972013;28;20955;-54
2022/11/22 08:45:04;;;;;;;14.70;11.33;;;6.40;1.00;;;;;;4969895;28;20511;-54
2022/11/22 08:47:30;;;;;;;10.57;9.30;;;6.50;1.00;;;;;;4971233;28;20770;-56
2022/11/22 08:49:56;;;;;;;14.43;11.10;;;;;;;;;;4971036;28;20473;-54
2022/11/22 08:52:22;;;;;;;12.10;9.87;;;6.40;1.00;;;;;;4971723;28;20280;-54
2022/11/22 08:54:48;;;;;;;11.63;9.90;;;;;;;;;;4971473;28;20503;-55
2022/11/22 08:57:13;;;;;;;12.10;9.70;;;6.40;1.00;;;;;;4971576;28;20216;-55
2022/11/22 08:59:39;;;;;;;13.27;11.50;;;6.40;1.00;;;;;;4970506;28;20437;-54
2022/11/22 09:02:05;;;;;;;15.10;12.03;;;6.40;1.00;;;;;;4971503;28;20281;-55
2022/11/22 09:04:31;;;;;;;12.20;10.07;;;6.40;1.00;;;;;;4966410;28;20188;-55
2022/11/22 09:06:56;;;;;;;14.07;11.40;;;6.40;1.00;;;;;;4971142;28;20452;-54
2022/11/22 09:09:22;;;;;;;18.30;11.33;;;6.50;1.00;;;;;;4971056;28;20238;-54
2022/11/22 09:11:48;;;;;;;15.27;10.93;;;6.60;1.00;;;;;;4969662;28;20200;-55
2022/11/22 09:14:14;;;;;;;12.57;10.63;;;;;;;;;;4970505;28;20226;-56
2022/11/22 09:16:39;;;;;;;16.80;10.60;;;6.70;1.00;;;;;;4969258;28;20676;-54
2022/11/22 09:19:05;;;;;;;12.77;9.70;;;6.80;1.00;;;;;;4971076;28;20430;-53
2022/11/22 09:21:31;;;;;;;12.60;11.00;;;;;;;;;;4970482;28;20182;-53
2022/11/22 09:23:57;;;;;;;16.90;11.20;;;6.90;1.00;;;;;;4970971;28;20190;-56
2022/11/22 09:26:25;;;;;;;13.70;9.87;;;7.00;1.00;;;;;;4971104;28;20513;-55
2022/11/22 09:28:54;;;;;;;15.13;11.97;;;7.10;1.00;;;;;;4968624;28;20212;-55
2022/11/22 09:31:21;;;;;;;13.43;11.03;;;7.20;1.00;;;;;;4969289;28;20471;-56
2022/11/22 09:33:48;;;;;;;12.30;10.33;;;;;;;;;;4969615;28;20415;-55
2022/11/22 09:36:19;;;;;;;11.20;8.90;;;7.30;1.00;;;;;;4970717;28;20563;-54
2022/11/22 09:38:45;;;;;;;14.97;11.10;;;7.20;1.00;;;;;;4970836;28;20807;-55
2022/11/22 09:41:49;;;;;;;16.07;11.17;;;7.40;1.00;;;;;;4971160;28;20429;-56
2022/11/22 09:44:33;;;;;;;12.40;9.63;;;7.40;1.00;;;;;;4970522;28;20189;-54
2022/11/22 09:47:14;;;;;;;11.57;9.60;;;7.40;1.00;;;;;;4970896;28;20504;-56
2022/11/22 09:50:01;;;;;;;10.77;9.57;;;7.40;1.00;;;;;;4970888;28;20428;-55
2022/11/22 09:52:32;;;;;;;13.97;9.67;;;7.40;1.00;;;;;;4970246;28;21031;-54
2022/11/22 09:55:22;;;;;;;11.40;9.57;;;7.50;1.00;;;;;;4969076;28;20562;-57
2022/11/22 09:57:58;;;;;;;10.97;9.87;;;7.50;1.00;;;;;;4970229;28;20420;-54
2022/11/22 10:00:27;;;;;;;13.67;10.10;;;7.50;1.00;;;;;;4970756;28;20759;-55
2022/11/22 10:03:10;;;;;;;10.97;9.60;;;7.40;1.00;;;;;;4970378;28;20538;-55
2022/11/22 10:05:57;;;;;;;14.40;10.20;;;7.40;1.00;;;;;;4969923;28;20470;-55
2022/11/22 10:08:35;;;;;;;11.23;8.90;;;7.30;1.00;;;;;;4970974;28;20506;-53
2022/11/22 10:11:11;;;;;;;14.73;9.47;;;7.30;1.00;;;;;;4970688;28;20462;-54
2022/11/22 10:13:49;;;;;;;10.70;9.00;;;7.20;1.00;;;;;;4970929;28;20431;-56
2022/11/22 10:16:30;;;;;;;11.43;8.63;;;7.20;1.00;;;;;;4970428;28;20830;-56
2022/11/22 10:19:17;;;;;;;10.13;8.67;;;7.20;1.00;;;;;;4970452;28;20437;-53
2022/11/22 10:21:46;;;;;;;10.20;8.27;;;7.20;1.00;;;;;;4970628;28;20443;-53
2022/11/22 10:24:15;;;;;;;11.93;9.70;;;7.10;1.00;;;;;;4970632;28;20795;-54
2022/11/22 10:26:41;;;;;;;10.67;8.87;;;8.80;1.00;;;;;;4969141;28;20499;-54
2022/11/22 10:29:27;;;;;;;12.90;9.17;;;7.10;1.00;;;;;;4970504;28;20445;-54
2022/11/22 10:32:17;;;;;;;12.33;10.13;;;7.10;1.00;;;;;;4968846;28;20518;-54
2022/11/22 10:35:00;;;;;;;11.87;9.13;;;7.20;1.00;;;;;;4969544;28;20442;-56
2022/11/22 10:38:15;;;;;;;10.80;8.40;;;7.20;1.00;;;;;;4970564;28;20448;-53
2022/11/22 10:40:59;;;;;;;12.63;9.30;;;7.10;1.00;;;;;;4955024;28;20448;-53
2022/11/22 10:43:36;;;;;;;12.60;9.03;;;7.30;1.00;;;;;;4969821;28;20403;-55
2022/11/22 10:46:23;;;;;;;10.50;8.77;;;7.30;1.00;;;;;;4974675;28;20435;-53
2022/11/22 10:49:09;;;;;;;11.70;9.00;;;7.40;1.00;;;;;;4974497;28;20444;-54
2022/11/22 10:51:57;;;;;;;12.73;10.47;;;7.30;1.00;;;;;;4973798;28;20444;-53
2022/11/22 10:54:49;;;;;;;13.53;10.17;;;7.40;1.00;;;;;;4974134;28;20432;-53
2022/11/22 10:57:40;;;;;;;12.90;9.30;;;7.40;1.00;;;;;;4971230;28;20507;-54
2022/11/22 11:00:15;;;;;;;10.03;8.07;;;7.70;1.00;;;;;;4974074;28;20415;-55
2022/11/22 11:02:41;;;;;;;10.90;8.83;;;;;;;;;;4973301;28;20395;-56
2022/11/22 11:05:13;;;;;;;11.73;9.37;;;8.00;1.00;;;;;;4972588;28;20448;-54
2022/11/22 11:07:47;;;;;;;10.83;8.23;;;8.00;1.00;;;;;;4971900;28;20979;-54
2022/11/22 11:10:17;;;;;;;12.50;9.30;;;8.10;1.00;;;;;;4969128;28;20443;-54
2022/11/22 11:12:53;;;;;;;12.50;10.30;;;8.10;1.00;;;;;;4972433;28;20535;-55
2022/11/22 11:15:44;;;;;;;11.90;8.53;;;7.90;1.00;;;;;;4973094;28;20938;-54
2022/11/22 11:18:19;;;;;;;12.70;9.90;;;7.70;1.00;;;;;;4972531;28;20456;-53
2022/11/22 11:20:46;;;;;;;14.23;9.70;;;7.70;1.00;;;;;;4972315;28;21034;-56
2022/11/22 11:23:13;;;;;;;13.50;9.30;;;7.80;1.00;;;;;;4973101;28;20450;-55
2022/11/22 11:25:42;;;;;;;13.60;10.67;;;7.80;1.00;;;;;;4970390;28;20515;-53
2022/11/22 11:28:21;;;;;;;16.10;11.53;;;7.70;1.00;;;;;;4973524;28;20491;-54
2022/11/22 11:30:55;;;;;;;15.40;10.90;;;7.70;1.00;;;;;;4973368;28;20908;-55
2022/11/22 11:33:31;;;;;;;13.37;10.57;;;7.70;1.00;;;;;;4973018;28;20445;-54
2022/11/22 11:36:22;;;;;;;17.10;11.50;;;7.80;1.00;;;;;;4973257;28;20483;-54
2022/11/22 11:38:56;;;;;;;15.43;10.97;;;7.80;1.00;;;;;;4969464;28;20534;-56
2022/11/22 11:41:28;;;;;;;14.67;11.30;;;7.80;1.00;;;;;;4972748;28;20522;-59
2022/11/22 11:43:56;;;;;;;14.00;10.87;;;7.80;1.00;;;;;;4972608;28;20453;-59
2022/11/22 11:46:26;;;;;;;19.63;13.30;;;7.80;1.00;;;;;;4973558;28;20952;-59
2022/11/22 11:48:54;;;;;;;13.30;11.03;;;7.90;1.00;;;;;;4972918;28;20487;-62
2022/11/22 11:51:30;;;;;;;15.43;11.63;;;7.90;1.00;;;;;;4973082;28;20506;-59
2022/11/22 11:54:00;;;;;;;15.20;11.57;;;7.90;1.00;;;;;;4971002;28;20826;-58
2022/11/22 11:56:31;;;;;;;18.03;12.60;;;7.90;1.00;;;;;;4971746;28;20480;-59
2022/11/22 11:59:01;;;;;;;24.60;12.37;;;7.90;1.00;;;;;;4971411;28;20433;-60
2022/11/22 12:01:27;;;;;;;17.60;13.13;;;7.90;1.00;;;;;;4972156;28;20812;-59
2022/11/22 12:03:56;;;;;;;14.80;11.60;;;7.90;1.00;;;;;;4971290;28;20423;-59
2022/11/22 12:06:28;;;;;;;16.43;11.80;;;7.80;1.00;;;;;;4971565;28;20284;-60
2022/11/22 12:08:53;;;;;;;19.03;12.20;;;7.80;1.00;;;;;;4969997;28;20452;-58
2022/11/22 12:11:33;;;;;;;16.17;12.57;;;7.80;1.00;;;;;;4971722;28;20462;-61
2022/11/22 12:14:03;;;;;;;16.57;12.73;;;7.80;1.00;;;;;;4972114;28;20611;-58
2022/11/22 12:16:33;;;;;;;14.50;11.20;;;7.70;1.00;;;;;;4971690;28;20484;-60
2022/11/22 12:19:26;;;;;;;14.67;12.00;;;7.70;1.00;;;;;;4970587;28;20540;-54
2022/11/22 12:22:08;;;;;;;22.07;12.07;;;7.70;1.00;;;;;;4969697;28;20946;-59
2022/11/22 12:24:39;;;;;;;17.70;11.83;;;7.70;1.00;;;;;;4970638;28;20835;-60
2022/11/22 12:27:08;;;;;;;18.17;11.43;;;7.60;1.00;;;;;;4972008;28;20592;-59
2022/11/22 12:29:38;;;;;;;15.40;12.33;;;7.60;1.00;;;;;;4971720;28;20457;-61
2022/11/22 12:32:10;;;;;;;17.30;11.90;;;7.50;1.00;;;;;;4971770;28;20787;-62
2022/11/22 12:34:42;;;;;;;13.83;10.80;;;7.50;1.00;;;;;;4971476;28;20826;-59
2022/11/22 12:37:22;;;;;;;15.97;12.50;;;7.50;1.00;;;;;;4973161;28;20865;-60
2022/11/22 12:39:50;;;;;;;16.20;12.10;;;7.40;1.00;;;;;;4971224;28;20467;-61
2022/11/22 12:42:19;;;;;;;15.13;12.00;;;7.50;1.00;;;;;;4971928;28;20452;-62
2022/11/22 12:44:56;;;;;;;16.43;13.53;;;7.40;1.00;;;;;;4970949;28;20458;-58
2022/11/22 12:47:27;;;;;;;17.30;13.10;;;7.50;1.00;;;;;;4972137;28;20433;-58
2022/11/22 12:50:01;;;;;;;22.27;13.50;;;7.50;1.00;;;;;;4972266;28;20514;-58
2022/11/22 12:52:30;;;;;;;13.73;11.17;;;7.50;1.00;;;;;;4971313;28;20975;-59
2022/11/22 12:54:59;;;;;;;18.73;12.77;;;7.50;1.00;;;;;;4971168;28;20503;-58
2022/11/22 12:57:52;;;;;;;15.83;12.67;;;7.50;1.00;;;;;;4971276;28;20882;-59
2022/11/22 13:00:20;;;;;;;19.63;13.60;;;7.50;1.00;;;;;;4969158;28;20441;-61
2022/11/22 13:03:00;;;;;;;15.33;11.57;;;7.50;1.00;;;;;;4971267;28;20531;-60
2022/11/22 13:05:27;;;;;;;14.90;12.00;;;7.70;1.00;;;;;;4972079;28;20433;-60
2022/11/22 13:08:19;;;;;;;18.33;13.17;;;7.60;1.00;;;;;;4970517;28;20901;-60
2022/11/22 13:10:50;;;;;;;22.40;12.57;;;7.60;1.00;;;;;;4971207;28;20518;-60
2022/11/22 13:13:29;;;;;;;16.70;12.50;;;7.70;1.00;;;;;;4971910;28;20460;-60
2022/11/22 13:15:57;;;;;;;18.60;13.20;;;7.50;1.00;;;;;;4972075;28;20464;-59
2022/11/22 13:18:30;;;;;;;18.47;12.40;;;7.60;1.00;;;;;;4967876;28;20456;-60
2022/11/22 13:21:09;;;;;;;18.57;11.70;;;7.70;1.00;;;;;;4972275;28;20506;-63
2022/11/22 13:24:12;;;;;;;15.53;11.80;;;7.70;1.00;;;;;;4972258;28;20478;-62